Time;durP1;ratioP1;P1;durP2;ratioP2;P2;SDS_P1;SDS_P2;PMS_P1;PMS_P2;Temp;Humidity;BMP_temperature;BMP_pressure;BME280_temperature;BME280_humidity;BME280_pressure;Samples;Min_cycle;Max_cycle;Signal;HPM_P1;HPM_P2
2023/07/08 00:01:20;;;;;;;1999.90;999.90;;;20.90;98.50;;;;;;6680100;88;20363;-77
2023/07/08 00:11:20;;;;;;;1999.90;999.90;;;20.70;99.90;;;;;;6692610;88;20327;-79
2023/07/08 00:21:21;;;;;;;1999.90;999.90;;;20.60;99.90;;;;;;6687334;88;20203;-78
2023/07/08 00:31:26;;;;;;;1999.90;999.90;;;20.40;99.90;;;;;;6691379;88;20607;-79
2023/07/08 00:41:38;;;;;;;1999.90;999.90;;;20.40;99.90;;;;;;6685432;88;20686;-78
2023/07/08 00:51:39;;;;;;;1999.90;999.90;;;20.30;99.90;;;;;;6681256;88;20229;-78
2023/07/08 01:01:42;;;;;;;1999.90;999.90;;;20.10;99.90;;;;;;6687872;88;20704;-78
2023/07/08 01:11:44;;;;;;;1999.90;999.90;;;19.80;99.90;;;;;;6682541;88;20178;-78
2023/07/08 01:21:59;;;;;;;1999.90;999.90;;;19.50;99.90;;;;;;6683524;88;20725;-78
2023/07/08 01:32:02;;;;;;;1999.90;999.90;;;19.50;99.90;;;;;;6683226;88;20259;-78
2023/07/08 01:42:03;;;;;;;1999.90;999.90;;;19.40;99.90;;;;;;6684774;88;20309;-78
2023/07/08 01:52:04;;;;;;;1999.90;999.90;;;19.10;99.90;;;;;;6679216;88;20359;-78
2023/07/08 02:02:05;;;;;;;1999.90;999.90;;;18.80;99.90;;;;;;6686412;88;20231;-78
2023/07/08 02:12:08;;;;;;;1999.90;999.90;;;18.60;99.90;;;;;;6684621;88;20212;-78
2023/07/08 02:22:09;;;;;;;1999.90;999.90;;;18.50;99.90;;;;;;6683499;88;21055;-78
2023/07/08 02:32:10;;;;;;;1999.90;999.90;;;18.50;99.90;;;;;;6689139;89;20212;-77
2023/07/08 02:42:10;;;;;;;1999.90;999.90;;;18.40;99.90;;;;;;6686045;88;20272;-79
2023/07/08 02:52:11;;;;;;;1999.90;999.90;;;18.40;99.90;;;;;;6685885;89;20674;-78
2023/07/08 03:02:12;;;;;;;1999.90;999.90;;;18.40;99.90;;;;;;6695842;88;20184;-79
2023/07/08 03:12:12;;;;;;;1999.90;999.90;;;18.10;99.90;;;;;;6685450;89;20697;-79
2023/07/08 03:22:13;;;;;;;1999.90;999.90;;;18.00;99.90;;;;;;6685728;88;20256;-78
2023/07/08 03:32:13;;;;;;;1999.90;999.90;;;18.10;99.90;;;;;;6684628;89;20215;-78
2023/07/08 03:42:14;;;;;;;1999.90;999.90;;;18.20;99.90;;;;;;6686297;89;20200;-78
2023/07/08 03:52:16;;;;;;;1999.90;999.90;;;18.20;99.90;;;;;;6684989;88;20325;-79
2023/07/08 04:02:16;;;;;;;1999.90;999.90;;;18.20;99.90;;;;;;6686396;88;20183;-80
2023/07/08 04:12:18;;;;;;;1999.90;999.90;;;18.00;99.90;;;;;;6687727;88;20199;-78
2023/07/08 04:22:18;;;;;;;1999.90;999.90;;;17.80;99.90;;;;;;6696325;77;20232;-78
2023/07/08 04:32:19;;;;;;;1999.90;999.90;;;17.70;99.90;;;;;;6697749;88;20314;-79
2023/07/08 04:42:19;;;;;;;1999.90;999.90;;;17.80;99.90;;;;;;6681875;88;20190;-77
2023/07/08 04:52:20;;;;;;;1999.90;999.90;;;18.00;99.90;;;;;;6689227;88;20207;-81
2023/07/08 05:02:20;;;;;;;1999.90;999.90;;;18.10;99.90;;;;;;6707672;88;20205;-76
2023/07/08 05:12:21;;;;;;;1999.90;999.90;;;18.30;99.90;;;;;;6687799;88;20188;-76
2023/07/08 05:22:25;;;;;;;1999.90;999.90;;;18.70;99.90;;;;;;6689736;88;20253;-77
2023/07/08 05:32:26;;;;;;;1999.90;999.90;;;18.80;99.90;;;;;;6690184;88;20194;-77
2023/07/08 05:42:27;;;;;;;1999.90;999.90;;;19.20;99.90;;;;;;6689802;88;20240;-78
2023/07/08 05:52:28;;;;;;;1999.90;999.90;;;19.60;99.90;;;;;;6691217;88;20680;-77
2023/07/08 06:02:28;;;;;;;1999.90;999.90;;;20.00;99.90;;;;;;6686121;88;20586;-77
2023/07/08 06:12:30;;;;;;;1999.90;999.90;;;20.90;99.90;;;;;;6693833;88;20915;-78
2023/07/08 06:22:30;;;;;;;1999.90;999.90;;;21.70;99.90;;;;;;6691421;88;20278;-77
2023/07/08 06:32:31;;;;;;;1999.90;999.90;;;22.50;99.90;;;;;;6694465;88;20236;-78
2023/07/08 06:42:32;;;;;;;1999.90;999.90;;;23.20;99.90;;;;;;6697889;88;20659;-78
2023/07/08 06:52:34;;;;;;;1999.90;999.90;;;23.40;99.50;;;;;;6690593;88;20235;-78
2023/07/08 07:02:34;;;;;;;1999.90;999.90;;;24.10;98.90;;;;;;6698291;88;20186;-79
2023/07/08 07:12:35;;;;;;;1999.90;999.90;;;25.50;97.70;;;;;;6697083;88;20710;-78
2023/07/08 07:22:36;;;;;;;1999.90;999.90;;;26.20;95.60;;;;;;6687856;88;20218;-78
2023/07/08 07:32:36;;;;;;;1999.90;999.90;;;26.50;92.70;;;;;;6697993;88;20657;-77
2023/07/08 07:42:37;;;;;;;1999.90;999.90;;;26.30;92.10;;;;;;6708652;88;20178;-77
2023/07/08 07:52:37;;;;;;;1999.90;999.90;;;27.00;91.80;;;;;;6707619;88;20194;-80
2023/07/08 08:02:38;;;;;;;1999.90;999.90;;;27.20;87.90;;;;;;6710118;88;20342;-80
2023/07/08 08:12:38;;;;;;;1999.90;999.90;;;27.00;86.70;;;;;;6706288;88;20557;-80
2023/07/08 08:22:39;;;;;;;1999.90;999.90;;;27.30;85.10;;;;;;6708966;88;20233;-80
2023/07/08 08:32:39;;;;;;;1999.90;999.90;;;27.90;84.20;;;;;;6696997;88;20687;-81
2023/07/08 08:42:43;;;;;;;1999.90;999.90;;;28.60;83.10;;;;;;6695174;88;20757;-81
2023/07/08 08:52:44;;;;;;;1999.90;999.90;;;28.70;81.80;;;;;;6694601;88;20662;-80
2023/07/08 09:03:02;;;;;;;1999.90;999.90;;;29.50;80.90;;;;;;6709138;88;20240;-80
2023/07/08 09:13:04;;;;;;;1999.90;999.90;;;29.90;80.20;;;;;;6684308;89;20176;-82
2023/07/08 09:23:21;;;;;;;1999.90;999.90;;;30.50;78.20;;;;;;6681284;89;20713;-82
2023/07/08 09:33:24;;;;;;;1999.90;999.90;;;30.50;77.20;;;;;;6679793;89;20322;-81
2023/07/08 09:43:27;;;;;;;1999.90;999.90;;;31.50;76.30;;;;;;6682118;89;20202;-80
2023/07/08 09:53:28;;;;;;;1999.90;999.90;;;31.50;76.90;;;;;;6678868;89;20766;-79
2023/07/08 10:03:33;;;;;;;1999.90;999.90;;;32.30;75.30;;;;;;6678657;89;20753;-81
2023/07/08 10:13:45;;;;;;;1999.90;999.90;;;32.00;75.40;;;;;;6676286;89;20196;-80
2023/07/08 10:23:57;;;;;;;1999.90;999.90;;;32.30;74.20;;;;;;6687224;88;20694;-79
2023/07/08 10:34:03;;;;;;;1999.90;999.90;;;33.00;72.60;;;;;;6703376;88;20226;-80
2023/07/08 10:44:14;;;;;;;1999.90;999.90;;;33.20;71.60;;;;;;6707836;88;20230;-80
2023/07/08 10:54:20;;;;;;;1999.90;999.90;;;34.10;70.30;;;;;;6676065;89;20311;-80
2023/07/08 11:04:49;;;;;;;1999.90;999.90;;;33.40;70.20;;;;;;6676674;89;21087;-80
2023/07/08 11:15:06;;;;;;;1999.90;999.90;;;34.90;69.20;;;;;;6673048;89;20686;-80
2023/07/08 11:25:19;;;;;;;1999.90;999.90;;;35.40;68.50;;;;;;6677441;89;21099;-80
2023/07/08 11:35:21;;;;;;;1999.90;999.90;;;34.80;68.90;;;;;;6687427;88;20686;-79
2023/07/08 11:45:30;;;;;;;1999.90;999.90;;;34.90;67.10;;;;;;6695923;88;20285;-79
2023/07/08 11:55:38;;;;;;;1999.90;999.90;;;34.60;67.80;;;;;;6695034;88;20186;-80
2023/07/08 12:05:38;;;;;;;1999.90;999.90;;;36.50;66.20;;;;;;6691064;88;20260;-80
2023/07/08 12:15:39;;;;;;;;;;;36.00;66.10;;;;;;6695621;88;20244;-80
2023/07/08 12:25:40;;;;;;;1999.90;999.90;;;35.60;65.30;;;;;;6690771;88;20194;-80
2023/07/08 12:35:42;;;;;;;1999.90;999.90;;;35.60;64.20;;;;;;6699007;88;20204;-81
2023/07/08 12:45:43;;;;;;;1999.90;999.90;;;36.20;64.70;;;;;;6696961;88;20215;-79
2023/07/08 12:55:45;;;;;;;1999.90;999.90;;;36.60;63.90;;;;;;6697323;88;20228;-80
2023/07/08 13:05:46;;;;;;;1999.90;999.90;;;37.60;63.30;;;;;;6695115;88;20227;-79
2023/07/08 13:15:46;;;;;;;1999.90;999.90;;;37.60;62.70;;;;;;6705089;88;20166;-79
2023/07/08 13:25:51;;;;;;;1999.90;999.90;;;36.30;62.80;;;;;;6695893;88;20252;-81
2023/07/08 13:35:55;;;;;;;1999.90;999.90;;;36.10;63.20;;;;;;6696079;88;20202;-81
2023/07/08 13:45:56;;;;;;;1999.90;999.90;;;37.50;62.60;;;;;;6692658;88;20244;-81
2023/07/08 13:55:58;;;;;;;1999.90;999.90;;;38.00;61.70;;;;;;6690055;88;20194;-80
2023/07/08 14:05:59;;;;;;;1999.90;999.90;;;38.10;62.20;;;;;;6688450;88;20970;-80
2023/07/08 14:16:01;;;;;;;1999.90;999.90;;;37.90;62.60;;;;;;6686965;88;20217;-79
2023/07/08 14:26:04;;;;;;;1999.90;999.90;;;36.70;63.10;;;;;;6687202;88;20273;-79
2023/07/08 14:36:16;;;;;;;1999.90;999.90;;;36.90;62.60;;;;;;6686936;88;20218;-79
2023/07/08 14:46:17;;;;;;;1999.90;999.90;;;36.20;63.50;;;;;;6670980;89;20325;-79
2023/07/08 14:56:25;;;;;;;1999.90;999.90;;;36.80;63.60;;;;;;6671329;89;20342;-79
2023/07/08 15:06:26;;;;;;;1999.90;999.90;;;37.00;63.90;;;;;;6669706;89;20238;-79
2023/07/08 15:16:26;;;;;;;1999.90;999.90;;;36.70;63.40;;;;;;6664539;89;20257;-79
2023/07/08 15:26:27;;;;;;;1999.90;999.90;;;36.00;63.90;;;;;;6695612;88;20343;-79
2023/07/08 15:36:28;;;;;;;1999.90;999.90;;;35.10;64.70;;;;;;6701041;88;20334;-79
2023/07/08 15:46:48;;;;;;;1999.90;999.90;;;34.70;65.30;;;;;;6702858;88;20213;-79
2023/07/08 15:56:51;;;;;;;1999.90;999.90;;;35.00;64.00;;;;;;6669965;88;20206;-78
2023/07/08 16:06:52;;;;;;;1999.90;999.90;;;34.50;64.80;;;;;;6705791;88;20534;-79
2023/07/08 16:16:52;;;;;;;1999.90;999.90;;;34.10;66.20;;;;;;6702048;88;20186;-79
2023/07/08 16:27:34;;;;;;;1999.90;999.90;;;34.30;66.10;;;;;;6685694;77;20207;-82
2023/07/08 16:37:34;;;;;;;;;;;34.30;64.80;;;;;;6732296;88;20277;-79
2023/07/08 16:47:35;;;;;;;1999.90;999.90;;;34.10;64.80;;;;;;6732414;88;20116;-81
2023/07/08 16:57:35;;;;;;;1999.90;999.90;;;33.70;66.60;;;;;;6732046;88;20188;-80
2023/07/08 17:07:36;;;;;;;1999.90;999.90;;;33.30;67.70;;;;;;6732023;88;20261;-79
2023/07/08 17:17:37;;;;;;;1999.90;999.90;;;32.70;67.90;;;;;;6731199;88;20684;-82
2023/07/08 17:27:38;;;;;;;1999.90;999.90;;;32.20;66.40;;;;;;6732083;88;21469;-78
2023/07/08 17:37:40;;;;;;;1999.90;999.90;;;32.40;68.80;;;;;;6733699;88;20226;-79
2023/07/08 17:47:41;;;;;;;1999.90;999.90;;;32.70;70.20;;;;;;6733095;88;20192;-78
2023/07/08 17:57:42;;;;;;;1999.90;999.90;;;31.30;73.50;;;;;;6730512;88;20180;-81
2023/07/08 18:07:45;;;;;;;1999.90;999.90;;;30.80;75.40;;;;;;6729169;88;20725;-80
2023/07/08 18:17:47;;;;;;;1999.90;999.90;;;29.90;78.40;;;;;;6730072;88;20184;-79
2023/07/08 18:27:49;;;;;;;1999.90;999.90;;;29.40;79.90;;;;;;6729845;88;20582;-80
2023/07/08 18:37:51;;;;;;;1999.90;999.90;;;29.20;80.70;;;;;;6716238;88;20274;-79
2023/07/08 18:47:52;;;;;;;;;;;28.90;81.10;;;;;;6714343;88;20309;-79
2023/07/08 18:57:52;;;;;;;1999.90;999.90;;;28.90;81.30;;;;;;6714963;88;20088;-79
2023/07/08 19:07:53;;;;;;;1999.90;999.90;;;29.10;81.80;;;;;;6713024;88;20638;-80
2023/07/08 19:17:55;;;;;;;1999.90;999.90;;;28.90;82.70;;;;;;6713025;88;20351;-80
2023/07/08 19:27:56;;;;;;;1999.90;999.90;;;28.50;82.80;;;;;;6715261;88;20208;-82
2023/07/08 19:37:57;;;;;;;1999.90;999.90;;;28.40;84.70;;;;;;6715283;88;20194;-79
2023/07/08 19:47:57;;;;;;;1999.90;999.90;;;28.00;84.90;;;;;;6711395;88;20185;-80
2023/07/08 19:57:59;;;;;;;1999.90;999.90;;;27.70;86.10;;;;;;6714087;88;20233;-79
2023/07/08 20:08:04;;;;;;;1999.90;999.90;;;27.70;87.30;;;;;;6714168;88;20581;-79
2023/07/08 20:18:05;;;;;;;1999.90;999.90;;;27.20;89.30;;;;;;6714009;88;20177;-80
2023/07/08 20:28:08;;;;;;;1999.90;999.90;;;26.80;91.20;;;;;;6713745;88;20331;-79
2023/07/08 20:38:12;;;;;;;1999.90;999.90;;;26.50;93.40;;;;;;6713270;88;20227;-80
2023/07/08 20:48:19;;;;;;;1999.90;999.90;;;26.40;95.40;;;;;;6713014;88;20199;-79
2023/07/08 20:58:26;;;;;;;1999.90;999.90;;;26.30;97.20;;;;;;6714114;88;20212;-78
2023/07/08 21:08:36;;;;;;;1999.90;999.90;;;26.30;97.30;;;;;;6712433;88;20214;-79
2023/07/08 21:18:36;;;;;;;1999.90;999.90;;;26.20;96.90;;;;;;6708999;88;20197;-80
2023/07/08 21:28:38;;;;;;;1999.90;999.90;;;26.00;97.80;;;;;;6712879;88;20213;-79
2023/07/08 21:38:38;;;;;;;1999.90;999.90;;;25.90;98.40;;;;;;6712160;88;20592;-79
2023/07/08 21:48:39;;;;;;;1999.90;999.90;;;25.70;97.80;;;;;;6711277;88;20220;-79
2023/07/08 21:58:39;;;;;;;1999.90;999.90;;;25.60;97.70;;;;;;6712542;88;20242;-79
2023/07/08 22:08:40;;;;;;;1999.90;999.90;;;25.70;97.10;;;;;;6714104;88;20205;-79
2023/07/08 22:18:45;;;;;;;1999.90;999.90;;;25.70;97.50;;;;;;6711837;88;20685;-81
2023/07/08 22:29:06;;;;;;;1999.90;999.90;;;25.50;98.00;;;;;;6753740;77;20193;-80
2023/07/08 22:39:08;;;;;;;1999.90;999.90;;;25.40;98.50;;;;;;6719427;88;20204;-82
2023/07/08 22:49:09;;;;;;;1999.90;999.90;;;25.40;99.00;;;;;;6719366;88;20189;-82
2023/07/08 22:59:10;;;;;;;1999.90;999.90;;;25.20;99.70;;;;;;6714240;88;20740;-81
2023/07/08 23:09:13;;;;;;;1999.90;999.90;;;25.10;99.90;;;;;;6700945;89;20195;-81
2023/07/08 23:19:14;;;;;;;1999.90;999.90;;;25.10;99.90;;;;;;6708726;88;20231;-80
2023/07/08 23:29:18;;;;;;;1999.90;999.90;;;25.00;99.90;;;;;;6703932;88;20255;-80
2023/07/08 23:39:26;;;;;;;1999.90;999.90;;;24.90;99.90;;;;;;6710775;88;20259;-80
2023/07/08 23:49:33;;;;;;;1999.90;999.90;;;24.80;99.90;;;;;;6714086;88;20185;-81
2023/07/08 23:59:39;;;;;;;1999.90;999.90;;;24.80;99.90;;;;;;6715857;88;20189;-80
